Terminal Aerodrome Forecast
Issued by NWS

Home | Current Version | Previous Version | Text Only | Print | Product List | Glossary Off
Versions: 1 2 3 4 5 6 7 8 9 10 11 12 13 14 15 16 17 18 19

000
FTUS43 KICT 200409 AAA
TAFRSL
TAF AMD
KRSL 200409Z 2004/2024 20008KT P6SM FEW015
     FM200800 21008KT 3SM BR BKN007
     FM201600 21010KT 6SM BR BKN015
     FM201800 22008KT P6SM SKC=

USA.gov is the U.S. government's official web portal to all federal, state and local government web resources and services.